createdAt,value
2022-08-03T00:00:25.949Z,9.75
2022-08-03T00:02:52.498Z,6.55
2022-08-03T00:05:19.085Z,5.90
2022-08-03T00:07:46.099Z,3.22
2022-08-03T00:10:15.132Z,7.53
2022-08-03T00:12:41.737Z,3.95
2022-08-03T00:15:11.407Z,6.63
2022-08-03T00:17:53.408Z,6.55
2022-08-03T00:20:24.151Z,4.18
2022-08-03T00:25:18.162Z,9.57
2022-08-03T00:27:45.112Z,5.72
2022-08-03T00:30:11.950Z,8.05
2022-08-03T00:32:40.049Z,6.32
2022-08-03T00:35:20.439Z,5.30
2022-08-03T00:37:58.696Z,6.55
2022-08-03T00:40:25.535Z,4.20
2022-08-03T00:43:00.175Z,7.97
2022-08-03T00:45:29.451Z,4.55
2022-08-03T00:47:57.159Z,9.57
2022-08-03T00:50:25.482Z,4.55
2022-08-03T00:52:53.413Z,7.75
2022-08-03T00:55:20.681Z,6.82
2022-08-03T00:57:47.503Z,7.50
2022-08-03T01:00:17.312Z,6.80
2022-08-03T01:02:44.433Z,7.25
2022-08-03T01:05:11.331Z,6.72
2022-08-03T01:08:21.229Z,7.03
2022-08-03T01:11:09.160Z,6.20
2022-08-03T01:14:18.820Z,9.88
2022-08-03T01:16:59.295Z,7.00
2022-08-03T01:19:50.686Z,6.38
2022-08-03T01:22:40.545Z,9.68
2022-08-03T01:25:39.356Z,9.57
2022-08-03T01:28:12.061Z,7.60
2022-08-03T01:30:43.443Z,7.10
2022-08-03T01:33:17.768Z,8.10
2022-08-03T01:35:54.402Z,5.75
2022-08-03T01:38:28.753Z,7.55
2022-08-03T01:40:56.782Z,6.88
2022-08-03T01:44:28.174Z,9.25
2022-08-03T01:46:17.196Z,10.00
2022-08-03T01:48:46.346Z,8.82
2022-08-03T01:51:15.624Z,5.80
2022-08-03T01:53:43.495Z,6.07
2022-08-03T01:56:11.705Z,9.52
2022-08-03T01:58:40.609Z,8.32
2022-08-03T02:01:09.288Z,6.50
2022-08-03T02:04:00.878Z,6.45
2022-08-03T02:07:00.030Z,5.93
2022-08-03T02:09:17.396Z,8.73
2022-08-03T02:11:48.313Z,7.57
2022-08-03T02:14:16.164Z,7.70
2022-08-03T02:16:44.840Z,11.27
2022-08-03T02:19:12.216Z,8.60
2022-08-03T02:21:56.335Z,6.40
2022-08-03T02:24:26.309Z,8.32
2022-08-03T02:26:56.543Z,8.18
2022-08-03T02:29:39.909Z,4.97
2022-08-03T02:32:12.388Z,7.65
2022-08-03T02:34:41.951Z,8.80
2022-08-03T02:37:10.847Z,8.97
2022-08-03T02:39:41.021Z,7.88
2022-08-03T02:42:09.840Z,5.97
2022-08-03T02:44:40.411Z,5.30
2022-08-03T02:47:10.872Z,9.50
2022-08-03T02:49:50.584Z,8.45
2022-08-03T02:54:47.687Z,9.82
2022-08-03T02:57:15.456Z,8.50
2022-08-03T02:59:44.280Z,11.68
2022-08-03T03:02:12.150Z,9.40
2022-08-03T03:04:41.215Z,7.50
2022-08-03T03:07:27.118Z,10.50
2022-08-03T03:09:56.352Z,10.55
2022-08-03T03:12:24.351Z,13.18
2022-08-03T03:14:50.873Z,8.50
2022-08-03T03:17:18.604Z,9.15
2022-08-03T03:19:46.135Z,8.80
2022-08-03T03:22:15.420Z,8.43
2022-08-03T03:24:44.177Z,9.57
2022-08-03T03:27:10.873Z,9.38
2022-08-03T03:29:43.958Z,6.97
2022-08-03T03:32:10.712Z,8.63
2022-08-03T03:34:37.872Z,12.10
2022-08-03T03:37:05.422Z,7.22
2022-08-03T03:39:32.215Z,6.45
2022-08-03T03:42:00.902Z,8.15
2022-08-03T03:44:31.213Z,6.88
2022-08-03T03:49:24.844Z,8.65
2022-08-03T03:51:55.637Z,6.13
2022-08-03T03:54:22.377Z,8.15
2022-08-03T03:56:52.297Z,8.63
2022-08-03T03:59:18.916Z,8.07
2022-08-03T04:01:45.841Z,8.10
2022-08-03T04:04:31.209Z,6.68
2022-08-03T04:07:16.578Z,12.82
2022-08-03T04:10:14.632Z,7.05
2022-08-03T04:12:50.547Z,10.07
2022-08-03T04:15:21.495Z,12.38
2022-08-03T04:17:50.272Z,9.27
2022-08-03T04:20:19.460Z,9.02
2022-08-03T04:22:48.135Z,9.75
2022-08-03T04:25:19.319Z,9.10
2022-08-03T04:28:28.343Z,13.07
2022-08-03T04:30:37.625Z,8.63
2022-08-03T04:33:06.295Z,10.90
2022-08-03T04:36:02.090Z,9.50
2022-08-03T04:38:24.969Z,8.35
2022-08-03T04:40:52.857Z,10.32
2022-08-03T04:43:22.521Z,9.52
2022-08-03T04:45:50.317Z,10.18
2022-08-03T04:48:17.371Z,8.90
2022-08-03T04:50:44.407Z,11.30
2022-08-03T04:53:11.042Z,10.93
2022-08-03T04:55:37.577Z,13.90
2022-08-03T04:58:04.690Z,15.45
2022-08-03T05:00:31.317Z,10.02
2022-08-03T05:02:58.249Z,10.10
2022-08-03T05:05:24.819Z,10.95
2022-08-03T05:07:51.559Z,9.43
2022-08-03T05:10:19.665Z,12.00
2022-08-03T05:12:48.500Z,11.23
2022-08-03T05:15:16.099Z,12.10
2022-08-03T05:17:42.927Z,9.80
2022-08-03T05:20:10.219Z,14.75
2022-08-03T05:22:36.739Z,16.77
2022-08-03T05:25:03.973Z,12.73
2022-08-03T05:27:30.566Z,13.25
2022-08-03T05:29:57.093Z,8.63
2022-08-03T05:32:43.574Z,11.60
2022-08-03T05:36:01.258Z,10.00
2022-08-03T05:37:56.751Z,11.10
2022-08-03T05:40:23.808Z,10.65
2022-08-03T05:42:50.406Z,12.00
2022-08-03T05:45:20.026Z,12.18
2022-08-03T05:47:47.020Z,13.27
2022-08-03T05:50:14.290Z,12.50
2022-08-03T05:52:41.309Z,11.30
2022-08-03T05:55:09.286Z,11.00
2022-08-03T05:57:36.317Z,10.57
2022-08-03T06:00:12.519Z,12.40
2022-08-03T06:02:42.213Z,11.63
2022-08-03T06:05:09.341Z,11.10
2022-08-03T06:07:36.045Z,13.30
2022-08-03T06:10:36.898Z,9.75
2022-08-03T06:12:51.084Z,7.93
2022-08-03T06:15:20.278Z,11.23
2022-08-03T06:17:51.426Z,7.57
2022-08-03T06:20:19.371Z,12.07
2022-08-03T06:22:51.249Z,11.45
2022-08-03T06:25:27.239Z,12.27
2022-08-03T06:27:53.719Z,8.70
2022-08-03T06:30:21.428Z,17.17
2022-08-03T06:32:51.783Z,10.68
2022-08-03T06:35:19.090Z,12.50
2022-08-03T06:37:49.512Z,15.07
2022-08-03T06:42:51.205Z,14.52
2022-08-03T06:45:17.959Z,12.05
2022-08-03T06:47:44.605Z,14.93
2022-08-03T06:50:16.567Z,9.02
2022-08-03T06:52:44.510Z,11.13
2022-08-03T06:55:11.476Z,12.18
2022-08-03T06:57:38.237Z,12.38
2022-08-03T07:00:06.026Z,13.68
2022-08-03T07:02:35.348Z,10.35
2022-08-03T07:05:02.847Z,12.70
2022-08-03T07:07:29.411Z,10.23
2022-08-03T07:09:57.740Z,11.95
2022-08-03T07:12:26.254Z,11.25
2022-08-03T07:14:56.685Z,13.20
2022-08-03T07:17:27.294Z,15.90
2022-08-03T07:19:53.858Z,14.73
2022-08-03T07:22:20.347Z,11.40
2022-08-03T07:24:47.824Z,13.23
2022-08-03T07:27:16.387Z,11.80
2022-08-03T07:29:42.947Z,8.55
2022-08-03T07:32:09.656Z,12.20
2022-08-03T07:34:36.160Z,13.60
2022-08-03T07:37:02.836Z,12.25
2022-08-03T07:39:29.976Z,13.25
2022-08-03T07:41:56.652Z,14.38
2022-08-03T07:44:23.186Z,11.10
2022-08-03T07:46:50.905Z,12.18
2022-08-03T07:49:18.602Z,12.80
2022-08-03T07:51:45.570Z,13.40
2022-08-03T07:54:12.269Z,14.82
2022-08-03T07:56:39.200Z,13.77
2022-08-03T07:59:05.885Z,13.40
2022-08-03T08:01:36.041Z,11.07
2022-08-03T08:04:02.821Z,10.85
2022-08-03T08:06:29.345Z,15.88
2022-08-03T08:08:59.578Z,14.10
2022-08-03T08:11:26.083Z,11.23
2022-08-03T08:13:52.586Z,14.85
2022-08-03T08:16:19.267Z,15.13
2022-08-03T08:18:45.883Z,13.88
2022-08-03T08:21:12.451Z,13.85
2022-08-03T08:23:43.799Z,12.45
2022-08-03T08:26:12.318Z,14.10
2022-08-03T08:28:39.755Z,15.73
2022-08-03T08:31:06.901Z,14.65
2022-08-03T08:34:02.704Z,12.65
2022-08-03T08:36:21.413Z,12.75
2022-08-03T08:38:48.038Z,14.75
2022-08-03T08:41:15.350Z,16.83
2022-08-03T08:43:43.713Z,14.63
2022-08-03T08:46:23.515Z,13.10
2022-08-03T08:51:20.026Z,12.02
2022-08-03T08:53:52.516Z,16.50
2022-08-03T08:56:22.449Z,14.85
2022-08-03T08:58:52.187Z,15.00
2022-08-03T09:01:22.102Z,15.23
2022-08-03T09:03:48.745Z,13.82
2022-08-03T09:06:16.483Z,13.82
2022-08-03T09:08:43.854Z,14.73
2022-08-03T09:11:12.040Z,12.75
2022-08-03T09:13:39.082Z,18.13
2022-08-03T09:16:20.430Z,14.00
2022-08-03T09:18:52.840Z,18.45
2022-08-03T09:21:36.308Z,16.60
2022-08-03T09:24:08.463Z,16.55
2022-08-03T09:26:38.211Z,12.93
2022-08-03T09:29:14.400Z,12.65
2022-08-03T09:31:45.989Z,15.55
2022-08-03T09:34:15.116Z,14.52
2022-08-03T09:36:49.731Z,14.30
2022-08-03T09:39:18.479Z,15.55
2022-08-03T09:41:48.608Z,23.20
2022-08-03T09:44:25.483Z,24.40
2022-08-03T09:46:57.050Z,15.55
2022-08-03T09:49:25.864Z,17.13
2022-08-03T09:52:38.215Z,24.73
2022-08-03T09:54:41.185Z,16.42
2022-08-03T09:57:08.151Z,16.42
2022-08-03T09:59:35.007Z,17.27
2022-08-03T10:02:02.027Z,16.38
2022-08-03T10:04:28.760Z,16.23
2022-08-03T10:07:10.083Z,14.77
2022-08-03T10:09:37.659Z,12.15
2022-08-03T10:12:11.981Z,14.68
2022-08-03T10:14:41.760Z,15.15
2022-08-03T10:17:09.750Z,15.73
2022-08-03T10:19:36.704Z,12.13
2022-08-03T10:22:15.088Z,15.40
2022-08-03T10:25:07.091Z,12.95
2022-08-03T10:27:47.874Z,14.20
2022-08-03T10:30:14.664Z,10.95
2022-08-03T10:33:02.479Z,10.02
2022-08-03T10:35:30.265Z,14.10
2022-08-03T10:38:04.012Z,13.18
2022-08-03T10:40:48.285Z,12.40
2022-08-03T10:43:27.466Z,12.43
2022-08-03T10:45:55.614Z,14.35
2022-08-03T10:48:23.116Z,11.55
2022-08-03T10:50:50.621Z,15.77
2022-08-03T10:53:34.611Z,14.50
2022-08-03T10:56:26.626Z,16.02
2022-08-03T10:59:06.897Z,14.50
2022-08-03T11:01:58.868Z,14.55
2022-08-03T11:04:27.227Z,14.10
2022-08-03T11:07:23.623Z,12.38
2022-08-03T11:09:56.134Z,14.45
2022-08-03T11:12:33.574Z,15.65
2022-08-03T11:15:10.817Z,12.73
2022-08-03T11:17:45.805Z,14.27
2022-08-03T11:20:54.728Z,13.27
2022-08-03T11:24:04.631Z,10.07
2022-08-03T11:26:31.987Z,15.60
2022-08-03T11:29:31.138Z,16.30
2022-08-03T11:31:58.084Z,12.63
2022-08-03T11:34:25.168Z,11.30
2022-08-03T11:37:26.406Z,10.77
2022-08-03T11:39:57.186Z,16.65
2022-08-03T11:42:27.546Z,14.38
2022-08-03T11:44:56.048Z,16.23
2022-08-03T11:47:26.831Z,15.02
2022-08-03T11:50:00.449Z,9.40
2022-08-03T11:52:28.982Z,12.65
2022-08-03T11:54:56.961Z,11.88
2022-08-03T11:59:19.011Z,16.48
2022-08-03T12:00:32.735Z,14.35
2022-08-03T12:03:12.491Z,8.93
2022-08-03T12:05:51.325Z,10.18
2022-08-03T12:08:28.010Z,15.00
2022-08-03T12:10:56.443Z,14.13
2022-08-03T12:14:43.925Z,9.00
2022-08-03T12:16:10.760Z,15.02
2022-08-03T12:18:37.540Z,10.43
2022-08-03T12:21:14.427Z,10.68
2022-08-03T12:23:40.970Z,13.27
2022-08-03T12:26:09.850Z,14.30
2022-08-03T12:28:38.409Z,12.63
2022-08-03T12:31:13.329Z,7.65
2022-08-03T12:34:00.392Z,10.50
2022-08-03T12:36:28.536Z,11.43
2022-08-03T12:38:57.868Z,10.85
2022-08-03T12:41:40.907Z,10.30
2022-08-03T12:44:08.978Z,6.93
2022-08-03T12:46:45.352Z,8.70
2022-08-03T12:49:17.186Z,9.30
2022-08-03T12:51:43.751Z,5.78
2022-08-03T12:54:17.146Z,8.60
2022-08-03T12:57:01.486Z,5.18
2022-08-03T12:59:34.822Z,5.00
2022-08-03T13:02:04.559Z,8.93
2022-08-03T13:04:36.534Z,10.70
2022-08-03T13:07:14.328Z,7.85
2022-08-03T13:09:53.284Z,7.53
2022-08-03T13:12:25.286Z,8.00
2022-08-03T13:14:55.523Z,5.22
2022-08-03T13:17:22.328Z,8.20
2022-08-03T13:19:49.972Z,10.10
2022-08-03T13:22:30.542Z,6.40
2022-08-03T13:24:58.256Z,8.65
2022-08-03T13:28:04.148Z,7.40
2022-08-03T13:30:12.810Z,5.68
2022-08-03T13:32:41.823Z,6.40
2022-08-03T13:35:09.611Z,6.77
2022-08-03T13:37:36.541Z,9.85
2022-08-03T13:40:06.497Z,6.18
2022-08-03T13:42:35.091Z,10.70
2022-08-03T13:45:02.876Z,4.28
2022-08-03T13:47:29.607Z,6.03
2022-08-03T13:50:01.675Z,6.15
2022-08-03T13:52:30.757Z,3.92
2022-08-03T13:54:57.332Z,6.90
2022-08-03T13:58:02.613Z,5.85
2022-08-03T14:00:12.032Z,5.05
2022-08-03T14:02:38.782Z,5.72
2022-08-03T14:05:05.825Z,6.60
2022-08-03T14:07:34.506Z,5.13
2022-08-03T14:10:01.886Z,7.03
2022-08-03T14:12:29.850Z,8.40
2022-08-03T14:14:59.697Z,6.28
2022-08-03T14:17:27.924Z,4.95
2022-08-03T14:20:36.933Z,7.15
2022-08-03T14:22:56.286Z,4.68
2022-08-03T14:25:22.984Z,6.60
2022-08-03T14:27:49.539Z,7.15
2022-08-03T14:30:16.044Z,5.03
2022-08-03T14:32:42.855Z,7.38
2022-08-03T14:35:09.591Z,4.72
2022-08-03T14:37:36.104Z,5.70
2022-08-03T14:40:02.931Z,6.22
2022-08-03T14:42:29.628Z,4.55
2022-08-03T14:45:00.718Z,9.32
2022-08-03T14:47:30.084Z,5.82
2022-08-03T14:50:37.135Z,6.85
2022-08-03T14:52:43.229Z,5.90
2022-08-03T14:55:09.984Z,5.95
2022-08-03T14:57:36.480Z,6.35
2022-08-03T15:00:04.004Z,5.40
2022-08-03T15:02:30.654Z,9.32
2022-08-03T15:04:57.391Z,6.13
2022-08-03T15:07:23.996Z,6.13
2022-08-03T15:09:50.487Z,5.53
2022-08-03T15:12:17.205Z,6.68
2022-08-03T15:14:43.851Z,5.95
2022-08-03T15:17:10.580Z,6.38
2022-08-03T15:20:03.302Z,7.07
2022-08-03T15:22:25.125Z,6.78
2022-08-03T15:25:02.279Z,6.00
2022-08-03T15:27:28.992Z,7.97
2022-08-03T15:30:08.882Z,9.50
2022-08-03T15:32:36.994Z,6.55
2022-08-03T15:35:04.143Z,5.68
2022-08-03T15:37:30.681Z,7.03
2022-08-03T15:40:00.991Z,7.47
2022-08-03T15:42:29.926Z,8.52
2022-08-03T15:44:56.635Z,21.50
2022-08-03T15:47:23.308Z,8.35
2022-08-03T15:49:49.944Z,16.70
2022-08-03T15:52:16.634Z,9.55
2022-08-03T15:54:43.253Z,6.72
2022-08-03T15:57:09.804Z,5.85
2022-08-03T15:59:36.314Z,8.05
2022-08-03T16:02:03.143Z,7.47
2022-08-03T16:04:29.915Z,10.27
2022-08-03T16:06:56.413Z,12.85
2022-08-03T16:09:43.262Z,7.65
2022-08-03T16:12:15.927Z,11.07
2022-08-03T16:14:52.538Z,7.63
2022-08-03T16:17:20.627Z,8.13
2022-08-03T16:19:47.488Z,8.35
2022-08-03T16:22:14.419Z,7.68
2022-08-03T16:24:41.566Z,8.63
2022-08-03T16:27:37.565Z,5.90
2022-08-03T16:29:54.888Z,5.50
2022-08-03T16:32:21.701Z,11.00
2022-08-03T16:34:48.287Z,5.85
2022-08-03T16:37:37.730Z,8.63
2022-08-03T16:40:02.285Z,7.38
2022-08-03T16:42:28.876Z,7.88
2022-08-03T16:44:55.441Z,5.70
2022-08-03T16:47:22.925Z,5.40
2022-08-03T16:49:55.543Z,5.55
2022-08-03T16:52:23.072Z,5.05
2022-08-03T16:54:53.902Z,5.85
2022-08-03T16:57:59.440Z,6.28
2022-08-03T17:00:34.002Z,7.38
2022-08-03T17:03:04.348Z,5.57
2022-08-03T17:05:43.661Z,5.70
2022-08-03T17:08:14.497Z,8.35
2022-08-03T17:10:45.202Z,6.10
2022-08-03T17:13:13.019Z,5.70
2022-08-03T17:15:58.078Z,4.45
2022-08-03T17:18:26.626Z,6.85
2022-08-03T17:20:55.802Z,5.22
2022-08-03T17:28:51.422Z,9.93
2022-08-03T17:31:31.795Z,8.30
2022-08-03T17:34:01.582Z,8.35
2022-08-03T17:36:53.936Z,6.38
2022-08-03T17:39:23.555Z,6.22
2022-08-03T17:42:01.233Z,7.07
2022-08-03T17:44:33.132Z,4.65
2022-08-03T17:47:08.104Z,5.72
2022-08-03T17:49:39.798Z,4.85
2022-08-03T17:52:51.635Z,5.18
2022-08-03T17:55:56.383Z,6.18
2022-08-03T17:58:28.658Z,5.38
2022-08-03T18:02:00.500Z,6.78
2022-08-03T18:04:10.954Z,6.68
2022-08-03T18:06:55.833Z,7.35
2022-08-03T18:10:03.806Z,6.82
2022-08-03T18:12:26.200Z,6.95
2022-08-03T18:15:01.318Z,9.32
2022-08-03T18:17:58.167Z,6.57
2022-08-03T18:20:32.207Z,7.70
2022-08-03T18:23:06.010Z,6.93
2022-08-03T18:25:43.098Z,4.63
2022-08-03T18:28:14.327Z,8.40
2022-08-03T18:30:54.574Z,7.28
2022-08-03T18:34:17.378Z,5.88
2022-08-03T18:36:17.266Z,6.30
2022-08-03T18:38:49.229Z,5.88
2022-08-03T18:41:31.803Z,7.75
2022-08-03T18:44:08.590Z,6.13
2022-08-03T18:46:42.189Z,5.97
2022-08-03T18:49:14.429Z,5.55
2022-08-03T18:51:46.567Z,7.70
2022-08-03T18:54:58.928Z,6.93
2022-08-03T18:57:44.739Z,8.57
2022-08-03T19:00:16.257Z,6.97
2022-08-03T19:05:21.722Z,6.15
2022-08-03T19:08:04.048Z,6.05
2022-08-03T19:10:36.735Z,5.95
2022-08-03T19:13:11.483Z,6.78
2022-08-03T19:15:51.435Z,6.78
2022-08-03T19:18:21.047Z,7.47
2022-08-03T19:20:53.281Z,6.90
2022-08-03T19:23:25.220Z,7.72
2022-08-03T19:25:53.791Z,5.78
2022-08-03T19:28:29.955Z,8.45
2022-08-03T19:30:57.250Z,10.50
2022-08-03T19:33:26.626Z,9.07
2022-08-03T19:35:57.794Z,7.32
2022-08-03T19:38:28.594Z,5.18
2022-08-03T19:41:03.789Z,5.38
2022-08-03T19:43:53.836Z,10.45
2022-08-03T19:46:30.151Z,6.40
2022-08-03T19:49:15.185Z,5.10
2022-08-03T19:52:01.287Z,7.80
2022-08-03T19:54:45.658Z,5.40
2022-08-03T19:57:24.239Z,6.85
2022-08-03T19:59:52.474Z,5.10
2022-08-03T20:02:26.597Z,7.07
2022-08-03T20:04:57.539Z,5.88
2022-08-03T20:07:29.396Z,7.20
2022-08-03T20:09:57.246Z,7.80
2022-08-03T20:12:27.509Z,7.35
2022-08-03T20:14:58.616Z,7.75
2022-08-03T20:17:55.868Z,9.38
2022-08-03T20:20:13.585Z,7.05
2022-08-03T20:22:45.495Z,6.22
2022-08-03T20:25:19.805Z,8.77
2022-08-03T20:28:06.668Z,6.45
2022-08-03T20:30:35.469Z,6.72
2022-08-03T20:33:02.009Z,10.23
2022-08-03T20:35:30.169Z,7.13
2022-08-03T20:37:57.892Z,6.75
2022-08-03T20:40:27.343Z,8.55
2022-08-03T20:42:55.295Z,6.43
2022-08-03T20:45:59.683Z,9.93
2022-08-03T20:48:10.131Z,9.60
2022-08-03T20:50:38.729Z,7.85
2022-08-03T20:53:07.751Z,11.25
2022-08-03T20:55:47.839Z,9.63
2022-08-03T20:58:25.703Z,14.68
2022-08-03T21:00:53.795Z,9.15
2022-08-03T21:03:20.383Z,9.77
2022-08-03T21:05:51.889Z,8.13
2022-08-03T21:08:22.499Z,8.43
2022-08-03T21:10:52.701Z,8.55
2022-08-03T21:13:47.141Z,10.13
2022-08-03T21:16:15.318Z,7.50
2022-08-03T21:18:53.022Z,7.10
2022-08-03T21:21:23.591Z,7.65
2022-08-03T21:23:53.378Z,9.75
2022-08-03T21:26:25.219Z,6.60
2022-08-03T21:28:54.779Z,7.57
2022-08-03T21:31:24.297Z,9.13
2022-08-03T21:34:02.339Z,8.15
2022-08-03T21:36:32.217Z,10.07
2022-08-03T21:38:59.514Z,6.78
2022-08-03T21:41:30.807Z,11.45
2022-08-03T21:43:58.313Z,9.75
2022-08-03T21:46:26.704Z,6.72
2022-08-03T21:48:56.409Z,8.40
2022-08-03T21:51:42.963Z,8.10
2022-08-03T21:54:11.049Z,8.65
2022-08-03T21:56:47.247Z,8.02
2022-08-03T21:59:17.544Z,7.50
2022-08-03T22:01:49.224Z,8.00
2022-08-03T22:04:50.692Z,6.30
2022-08-03T22:07:08.590Z,8.40
2022-08-03T22:09:36.623Z,9.35
2022-08-03T22:12:04.734Z,7.45
2022-08-03T22:14:35.242Z,7.45
2022-08-03T22:17:06.318Z,8.68
2022-08-03T22:19:34.337Z,13.80
2022-08-03T22:22:06.490Z,7.35
2022-08-03T22:24:35.976Z,9.10
2022-08-03T22:27:22.221Z,8.48
2022-08-03T22:29:50.992Z,9.57
2022-08-03T22:32:18.430Z,8.57
2022-08-03T22:34:47.941Z,8.75
2022-08-03T22:37:18.169Z,7.75
2022-08-03T22:39:46.369Z,7.57
2022-08-03T22:42:13.694Z,7.32
2022-08-03T22:44:40.870Z,9.93
2022-08-03T22:47:09.534Z,7.95
2022-08-03T22:49:37.917Z,8.23
2022-08-03T22:52:07.585Z,11.65
2022-08-03T22:54:35.541Z,7.05
2022-08-03T22:57:02.168Z,8.38
2022-08-03T22:59:40.195Z,8.88
2022-08-03T23:02:20.531Z,11.15
2022-08-03T23:04:55.336Z,11.40
2022-08-03T23:07:30.072Z,8.27
2022-08-03T23:09:58.216Z,8.80
2022-08-03T23:12:25.285Z,7.45
2022-08-03T23:14:54.762Z,9.60
2022-08-03T23:17:23.251Z,9.45
2022-08-03T23:19:55.765Z,9.60
2022-08-03T23:22:30.187Z,7.03
2022-08-03T23:24:58.619Z,8.05
2022-08-03T23:27:26.885Z,9.48
2022-08-03T23:29:53.997Z,11.68
2022-08-03T23:32:21.274Z,8.52
2022-08-03T23:35:08.083Z,6.45
2022-08-03T23:38:04.297Z,7.43
2022-08-03T23:40:31.225Z,10.18
2022-08-03T23:42:58.430Z,8.93
2022-08-03T23:45:26.587Z,6.97
2022-08-03T23:47:53.319Z,8.60
2022-08-03T23:50:20.018Z,9.88
2022-08-03T23:53:16.741Z,9.90
2022-08-03T23:56:10.218Z,6.72
2022-08-03T23:58:54.937Z,8.45
